Colorado Springs, CO (80924)

10:46 PM MDT on July 31, 2015 (GMT -0600)
Briargate | | Change Station
CLOSE
Current Station
Personal Weather Station
Location: Colorado Springs, CO
Elevation: 6952 ft
Nearby Weather Stations

Elev 6952 ft 38.96 °N, 104.76 °W | Updated 12 minutes ago

Partly Cloudy
Partly Cloudy
61.0 °F
Feels Like 61.0 °F
N
0.0
Wind Variable Wind from SW

Today
High -- | Low -- °F
--% Chance of Precip.
Yesterday
High -- | Low -- °F
Precip. -- in
5:58 AM 8:11 PM
Full, 99% visible
Pressure 30.09 in
Visibility 10.0 miles
Clouds Few 12000 ft
Dew Point 51 °F
Humidity 70%
Rainfall 0.00 in
Snow Depth Not available.
UV 0 out of 12
Pollen 6.20 out of 12
Air Quality Not available.
Flu Activity Not available.
METAR KAFF 010358Z AUTO 08002KT 10SM FEW120 19/10 A3037 RMK AO2 SLP189 T01940103

More Conditions Fewer Conditions

Pressure 30.09 in
Visibility 10.0 miles
Clouds Few 12000 ft
Dew Point 51 °F
Humidity 70%
Rainfall 0.00 in
Snow Depth Not available.
UV 0 out of 12
Pollen 6.20 out of 12
Air Quality Not available.
Flu Activity Not available.
METAR KAFF 010358Z AUTO 08002KT 10SM FEW120 19/10 A3037 RMK AO2 SLP189 T01940103

More Conditions Fewer Conditions

10-Day Weather Forecast

×

Almanac

Astronomy

Jul. 31, 2015 Rise Set
Actual Time
Civil Twilight
Nautical Twilight
Astronomical Twilight
Moon
Length of Visible Light
Length of Day
Tomorrow will be .
, % of the Moon is Illuminated

Today's Extremes

State Highs State Lows

Community

WunderPhotos

Upload Photos

1,842,882 photos uploaded!

WunderBlogs® & News

Nearby

Air Quality

  Air Quality AQ Index Pollutant
Not available.

Snow Depth

Station Depth Elevation

Earthquake Activity

City Distance Mag. Time & Date
Minimum magnitude displayed is 2.5.

Coastal Water Temperatures

Place Temperature

Stations

Nearby Weather Stations

Station Location Temp. Windchill Dew Point Humidity Wind Precip. Elev Updated Type